Time;durP1;ratioP1;P1;durP2;ratioP2;P2;SDS_P1;SDS_P2;PMS_P1;PMS_P2;Temp;Humidity;BMP_temperature;BMP_pressure;BME280_temperature;BME280_humidity;BME280_pressure;Samples;Min_cycle;Max_cycle;Signal;HPM_P1;HPM_P2
2022/12/26 00:01:42;;;;;;;;;;;7.70;99.90;;;;;;5050038;28;19930;-69
2022/12/26 00:04:10;;;;;;;;;;;7.70;99.90;;;;;;4984353;28;20291;-69
2022/12/26 00:06:35;;;;;;;;;;;7.70;99.90;;;;;;4985266;28;20453;-69
2022/12/26 00:09:03;;;;;;;;;;;7.70;99.90;;;;;;4984042;28;19925;-69
2022/12/26 00:11:28;;;;;;;;;;;7.70;99.90;;;;;;5084700;27;19941;-69
2022/12/26 00:13:59;;;;;;;;;;;7.70;99.90;;;;;;4983426;28;19929;-69
2022/12/26 00:16:28;;;;;;;;;;;7.70;99.90;;;;;;4986675;28;20378;-70
2022/12/26 00:18:56;;;;;;;;;;;7.70;99.90;;;;;;4988409;28;20017;-69
2022/12/26 00:21:28;;;;;;;;;;;7.70;99.90;;;;;;4985593;28;20058;-69
2022/12/26 00:23:54;;;;;;;;;;;7.70;99.90;;;;;;4986350;28;19928;-70
2022/12/26 00:26:21;;;;;;;;;;;7.70;99.90;;;;;;5083031;28;20390;-69
2022/12/26 00:28:47;;;;;;;;;;;7.70;99.90;;;;;;5082254;28;20090;-70
2022/12/26 00:31:19;;;;;;;;;;;7.70;99.90;;;;;;4986905;28;19929;-70
2022/12/26 00:33:48;;;;;;;;;;;7.70;99.90;;;;;;5086502;27;19929;-69
2022/12/26 00:36:21;;;;;;;;;;;7.70;99.90;;;;;;4986158;28;19943;-69
2022/12/26 00:38:56;;;;;;;;;;;7.70;99.90;;;;;;4996372;28;19922;-69
2022/12/26 00:41:22;;;;;;;;;;;7.70;99.90;;;;;;4966862;28;20371;-69
2022/12/26 00:43:48;;;;;;;;;;;7.70;99.90;;;;;;5084475;27;19983;-69
2022/12/26 00:46:15;;;;;;;;;;;7.70;99.90;;;;;;4983975;28;19966;-69
2022/12/26 00:48:40;;;;;;;;;;;7.70;99.90;;;;;;4981942;28;20068;-69
2022/12/26 00:51:06;;;;;;;;;;;7.70;99.90;;;;;;5069685;28;20013;-69
2022/12/26 00:53:32;;;;;;;;;;;7.70;99.90;;;;;;4999006;28;19921;-69
2022/12/26 00:56:02;;;;;;;;;;;7.70;99.90;;;;;;4991917;28;19922;-69
2022/12/26 00:58:28;;;;;;;;;;;7.70;99.90;;;;;;5083748;28;19921;-69
2022/12/26 01:00:54;;;;;;;;;;;7.70;99.90;;;;;;5063634;28;20012;-70
2022/12/26 01:03:19;;;;;;;;;;;7.70;99.90;;;;;;4985431;28;20410;-69
2022/12/26 01:05:46;;;;;;;;;;;7.70;99.90;;;;;;5086792;27;19965;-69
2022/12/26 01:08:13;;;;;;;;;;;7.70;99.90;;;;;;5068616;28;20335;-69
2022/12/26 01:10:40;;;;;;;;;;;7.70;99.90;;;;;;4967490;28;19930;-69
2022/12/26 01:13:08;;;;;;;;;;;7.70;99.90;;;;;;4979102;28;19929;-70
2022/12/26 01:15:46;;;;;;;;;;;7.70;99.90;;;;;;4985754;28;19922;-69
2022/12/26 01:18:13;;;;;;;;;;;7.80;99.90;;;;;;4982111;28;19929;-69
2022/12/26 01:20:38;;;;;;;;;;;7.80;99.90;;;;;;4985859;28;20329;-70
2022/12/26 01:23:04;;;;;;;;;;;7.80;99.90;;;;;;5084471;27;19940;-69
2022/12/26 01:25:29;;;;;;;;;;;7.80;99.90;;;;;;5083402;27;19956;-69
2022/12/26 01:27:55;;;;;;;;;;;7.80;99.90;;;;;;4970964;28;19941;-70
2022/12/26 01:30:21;;;;;;;;;;;7.80;99.90;;;;;;4988203;28;20231;-69
2022/12/26 01:32:46;;;;;;;;;;;7.80;99.90;;;;;;4985283;28;19925;-69
2022/12/26 01:35:15;;;;;;;;;;;7.80;99.90;;;;;;4983973;28;19980;-69
2022/12/26 01:37:41;;;;;;;;;;;7.80;99.90;;;;;;4982371;28;20375;-69
2022/12/26 01:40:07;;;;;;;;;;;7.80;99.90;;;;;;4985700;28;19922;-69
2022/12/26 01:42:38;;;;;;;;;;;7.80;99.90;;;;;;5081752;28;20398;-69
2022/12/26 01:45:22;;;;;;;;;;;7.90;99.90;;;;;;5061079;28;19934;-70
2022/12/26 01:47:50;;;;;;;;;;;7.80;99.90;;;;;;4992630;28;19926;-69
2022/12/26 01:50:46;;;;;;;;;;;7.90;99.90;;;;;;4982275;28;19922;-70
2022/12/26 01:53:20;;;;;;;;;;;7.90;99.90;;;;;;4980128;28;19922;-70
2022/12/26 01:55:53;;;;;;;;;;;7.90;99.90;;;;;;4980881;28;19929;-69
2022/12/26 01:58:26;;;;;;;;;;;7.90;99.90;;;;;;4983883;28;20287;-69
2022/12/26 02:00:55;;;;;;;;;;;7.90;99.90;;;;;;4987164;28;19933;-70
2022/12/26 02:06:07;;;;;;;;;;;7.90;99.90;;;;;;5083734;28;20387;-69
2022/12/26 02:08:37;;;;;;;;;;;7.90;99.90;;;;;;4981393;28;19933;-69
2022/12/26 02:11:24;;;;;;;;;;;8.00;99.90;;;;;;5081383;27;20004;-69
2022/12/26 02:13:53;;;;;;;;;;;8.00;99.90;;;;;;4982534;28;20325;-70
2022/12/26 02:16:19;;;;;;;;;;;7.90;99.90;;;;;;5062184;28;19922;-70
2022/12/26 02:18:45;;;;;;;;;;;7.90;99.90;;;;;;4966918;28;19929;-70
2022/12/26 02:21:19;;;;;;;;;;;8.00;99.90;;;;;;5080683;28;19922;-69
2022/12/26 02:23:49;;;;;;;;;;;8.00;99.90;;;;;;4996520;28;19929;-69
2022/12/26 02:26:34;;;;;;;;;;;7.90;99.90;;;;;;5082008;28;19926;-69
2022/12/26 02:29:28;;;;;;;;;;;7.90;99.90;;;;;;4988216;28;19930;-69
2022/12/26 02:32:03;;;;;;;;;;;8.00;99.90;;;;;;4999190;28;19983;-70
2022/12/26 02:34:30;;;;;;;;;;;7.90;99.90;;;;;;4983977;28;19937;-70
2022/12/26 02:37:05;;;;;;;;;;;8.00;99.90;;;;;;4970380;28;19922;-70
2022/12/26 02:39:39;;;;;;;;;;;8.00;99.90;;;;;;4981448;28;20343;-70
2022/12/26 02:42:14;;;;;;;;;;;8.00;99.90;;;;;;4981961;28;20556;-70
2022/12/26 02:47:57;;;;;;;;;;;8.00;99.90;;;;;;4984152;28;19930;-70
2022/12/26 03:14:17;;;;;;;;;;;8.10;99.90;;;;;;5087777;27;19943;-69
2022/12/26 03:19:34;;;;;;;;;;;8.00;99.90;;;;;;5088733;27;19937;-69
2022/12/26 03:22:29;;;;;;;;;;;8.10;99.90;;;;;;5086611;27;20188;-69
2022/12/26 03:27:32;;;;;;;;;;;8.10;99.90;;;;;;4984405;28;20375;-69
2022/12/26 03:32:45;;;;;;;;;;;8.20;99.90;;;;;;4985154;28;19922;-69
2022/12/26 03:35:12;;;;;;;;;;;8.10;99.90;;;;;;4988012;28;19929;-69
2022/12/26 03:37:58;;;;;;;;;;;8.10;99.90;;;;;;4985680;28;19934;-69
2022/12/26 04:44:29;;;;;;;;;;;8.30;99.90;;;;;;4984656;28;19926;-69
2022/12/26 04:46:55;;;;;;;;;;;8.30;99.90;;;;;;4986843;28;19941;-69
2022/12/26 04:52:10;;;;;;;;;;;8.30;99.90;;;;;;5057176;28;19949;-69
2022/12/26 04:54:41;;;;;;;;;;;8.30;99.90;;;;;;4984942;28;20413;-69
2022/12/26 04:57:13;;;;;;;;;;;8.30;99.90;;;;;;4989781;28;19964;-69
2022/12/26 04:59:45;;;;;;;;;;;8.30;99.90;;;;;;5069857;28;19961;-69
2022/12/26 05:10:27;;;;;;;;;;;8.20;99.90;;;;;;4985687;28;19949;-69
2022/12/26 05:12:53;;;;;;;;;;;8.20;99.90;;;;;;4986905;28;20343;-69
2022/12/26 05:15:19;;;;;;;;;;;8.20;99.90;;;;;;4984595;28;19921;-68
2022/12/26 05:28:46;;;;;;;;;;;8.20;99.90;;;;;;4984631;28;20083;-69
2022/12/26 05:31:16;;;;;;;;;;;8.20;99.90;;;;;;4984639;28;19922;-69
2022/12/26 05:36:33;;;;;;;;;;;8.20;99.90;;;;;;5085315;27;19929;-69
2022/12/26 05:39:06;;;;;;;;;;;8.20;99.90;;;;;;4968920;28;20333;-68
2022/12/26 05:41:31;;;;;;;;;;;8.10;99.90;;;;;;4973379;28;20343;-68
2022/12/26 05:43:57;;;;;;;;;;;8.10;99.90;;;;;;4983467;28;19922;-68
2022/12/26 05:46:24;;;;;;;;;;;8.10;99.90;;;;;;4983000;28;19975;-69
2022/12/26 05:48:49;;;;;;;;;;;8.10;99.90;;;;;;4984596;28;19926;-69
2022/12/26 05:51:18;;;;;;;;;;;8.10;99.90;;;;;;4984275;28;19963;-68
2022/12/26 05:53:44;;;;;;;;;;;8.10;99.90;;;;;;4986762;28;20118;-69
2022/12/26 05:56:11;;;;;;;;;;;8.10;99.90;;;;;;4981738;28;19925;-69
2022/12/26 05:58:37;;;;;;;;;;;8.10;99.90;;;;;;4967416;28;19944;-69
2022/12/26 06:01:26;;;;;;;;;;;8.00;99.90;;;;;;4984780;28;20391;-69
2022/12/26 06:03:53;;;;;;;;;;;8.10;99.90;;;;;;4983510;28;19999;-69
2022/12/26 06:06:26;;;;;;;;;;;8.00;99.90;;;;;;4986272;28;19928;-68
2022/12/26 06:08:55;;;;;;;;;;;8.10;99.90;;;;;;4982587;28;19937;-68
2022/12/26 06:11:23;;;;;;;;;;;8.00;99.90;;;;;;4983568;28;19921;-68
2022/12/26 06:13:52;;;;;;;;;;;8.00;99.90;;;;;;5066873;28;19922;-69
2022/12/26 06:16:18;;;;;;;;;;;8.00;99.90;;;;;;4983331;28;19933;-69
2022/12/26 06:18:44;;;;;;;;;;;8.00;99.90;;;;;;5083023;28;20501;-68
2022/12/26 06:21:13;;;;;;;;;;;8.00;99.90;;;;;;5003254;28;19926;-69
2022/12/26 06:23:39;;;;;;;;;;;8.00;99.90;;;;;;4982367;28;20005;-69
2022/12/26 06:26:06;;;;;;;;;;;7.90;99.90;;;;;;4976537;28;19921;-69
2022/12/26 06:28:35;;;;;;;;;;;7.90;99.90;;;;;;4983183;28;19933;-69
2022/12/26 06:31:06;;;;;;;;;;;8.00;99.90;;;;;;4988093;28;19922;-69
2022/12/26 06:33:36;;;;;;;;;;;8.00;99.90;;;;;;5083447;28;20027;-69
2022/12/26 06:36:02;;;;;;;;;;;7.90;99.90;;;;;;5072412;28;19921;-69
2022/12/26 06:38:30;;;;;;;;;;;8.00;99.90;;;;;;5071387;28;20574;-68
2022/12/26 06:40:57;;;;;;;;;;;7.90;99.90;;;;;;5089089;28;19928;-69
2022/12/26 06:43:23;;;;;;;;;;;7.90;99.90;;;;;;4986086;28;19972;-69
2022/12/26 06:45:55;;;;;;;;;;;7.90;99.90;;;;;;4986754;28;19926;-69
2022/12/26 06:48:24;;;;;;;;;;;7.90;99.90;;;;;;5089502;27;19928;-69
2022/12/26 06:50:50;;;;;;;;;;;7.90;99.90;;;;;;5088556;28;20025;-68
2022/12/26 06:53:15;;;;;;;;;;;8.00;99.90;;;;;;4986985;28;20016;-69
2022/12/26 06:55:41;;;;;;;;;;;8.00;99.90;;;;;;4989188;28;20387;-69
2022/12/26 06:58:07;;;;;;;;;;;8.00;99.90;;;;;;4993835;28;20215;-69
2022/12/26 07:00:32;;;;;;;;;;;8.00;99.90;;;;;;4985860;28;19922;-69
2022/12/26 07:03:04;;;;;;;;;;;8.00;99.90;;;;;;4984771;28;20005;-68
2022/12/26 07:05:29;;;;;;;;;;;8.00;99.90;;;;;;5087891;28;19922;-68
2022/12/26 07:07:55;;;;;;;;;;;8.00;99.90;;;;;;4984914;28;19940;-69
2022/12/26 07:10:21;;;;;;;;;;;8.00;99.90;;;;;;4985109;28;19974;-69
2022/12/26 07:12:47;;;;;;;;;;;8.10;99.90;;;;;;4986329;28;19952;-69
2022/12/26 07:15:13;;;;;;;;;;;8.00;99.90;;;;;;4971431;28;20370;-68
2022/12/26 07:17:39;;;;;;;;;;;7.90;99.90;;;;;;4985538;28;19926;-69
2022/12/26 07:20:10;;;;;;;;;;;7.90;99.90;;;;;;4983213;28;19936;-68
2022/12/26 07:22:39;;;;;;;;;;;7.80;99.90;;;;;;4986051;28;19979;-68
2022/12/26 07:25:07;;;;;;;;;;;7.80;99.90;;;;;;5085699;28;19925;-69
2022/12/26 07:27:34;;;;;;;;;;;7.80;99.90;;;;;;5070278;28;20787;-69
2022/12/26 07:30:00;;;;;;;;;;;7.70;99.90;;;;;;4987119;28;19932;-68
2022/12/26 07:32:26;;;;;;;;;;;7.70;99.90;;;;;;4984749;28;19922;-68
2022/12/26 07:34:54;;;;;;;;;;;7.70;99.90;;;;;;4976661;28;19922;-69
2022/12/26 07:37:23;;;;;;;;;;;7.70;99.90;;;;;;5086179;27;20266;-69
2022/12/26 07:39:51;;;;;;;;;;;7.60;99.90;;;;;;4990117;28;19921;-68
2022/12/26 07:42:18;;;;;;;;;;;7.60;99.90;;;;;;5065179;28;20122;-68
2022/12/26 07:44:44;;;;;;;;;;;7.60;99.90;;;;;;5088963;27;19925;-68
2022/12/26 07:47:11;;;;;;;;;;;7.60;99.90;;;;;;4968093;28;20676;-68
2022/12/26 07:49:36;;;;;;;;;;;7.60;99.90;;;;;;5089549;28;19940;-69
2022/12/26 07:52:03;;;;;;;;;;;7.60;99.90;;;;;;4986494;28;20023;-69
2022/12/26 07:54:30;;;;;;;;;;;7.50;99.90;;;;;;4987869;28;20032;-69
2022/12/26 07:56:56;;;;;;;;;;;7.50;99.90;;;;;;5087388;27;20042;-68
2022/12/26 07:59:22;;;;;;;;;;;7.50;99.90;;;;;;4994541;28;20380;-69
2022/12/26 08:01:47;;;;;;;;;;;7.60;99.90;;;;;;4987594;28;19979;-68
2022/12/26 08:04:13;;;;;;;;;;;7.60;99.90;;;;;;4984047;28;20337;-68
2022/12/26 08:06:39;;;;;;;;;;;7.60;99.90;;;;;;4987877;28;20402;-68
2022/12/26 08:12:00;;;;;;;;;;;7.60;99.90;;;;;;5085909;28;19924;-68
2022/12/26 08:14:25;;;;;;;;;;;7.60;99.90;;;;;;5088465;28;19924;-68
2022/12/26 08:16:51;;;;;;;;;;;7.60;99.90;;;;;;5057373;28;20363;-68
2022/12/26 08:19:17;;;;;;;;;;;7.60;99.90;;;;;;5070659;28;20439;-68
2022/12/26 08:21:42;;;;;;;;;;;7.60;99.90;;;;;;5088124;28;19924;-68
2022/12/26 08:24:08;;;;;;;;;;;7.60;99.90;;;;;;5073831;28;20015;-68
2022/12/26 08:26:34;;;;;;;;;;;7.60;99.90;;;;;;5076290;28;19924;-68
2022/12/26 08:28:59;;;;;;;;;;;7.60;99.90;;;;;;5088394;28;19964;-68
2022/12/26 08:31:25;;;;;;;;;;;7.60;99.90;;;;;;5084195;28;20054;-68
2022/12/26 08:33:53;;;;;;;;;;;7.60;99.90;;;;;;5094052;28;20006;-68
2022/12/26 08:36:19;;;;;;;;;;;7.50;99.90;;;;;;5080859;28;19920;-68
2022/12/26 08:38:45;;;;;;;;;;;7.60;99.90;;;;;;5093933;28;19920;-68
2022/12/26 08:41:12;;;;;;;;;;;7.50;99.90;;;;;;5075980;28;19924;-68
2022/12/26 08:43:41;;;;;;;;;;;7.60;99.90;;;;;;5075447;28;19921;-68
2022/12/26 08:46:07;;;;;;;;;;;7.60;99.90;;;;;;5093223;28;19964;-68
2022/12/26 08:48:33;;;;;;;;;;;7.60;99.90;;;;;;5063434;28;20436;-68
2022/12/26 08:51:07;;;;;;;;;;;7.70;99.90;;;;;;5074768;28;19982;-68
2022/12/26 08:53:34;;;;;;;;;;;7.80;99.90;;;;;;5084495;28;19924;-69
2022/12/26 08:56:00;;;;;;;;;;;7.90;99.90;;;;;;5069863;28;19920;-68
2022/12/26 08:58:27;;;;;;;;;;;8.00;99.90;;;;;;5087638;28;19972;-68
2022/12/26 09:00:52;;;;;;;;;;;8.00;99.90;;;;;;5079754;28;20384;-68
2022/12/26 09:03:18;;;;;;;;;;;8.00;99.90;;;;;;5073568;28;19943;-68
2022/12/26 09:05:50;;;;;;;;;;;8.10;99.90;;;;;;5092132;28;19965;-68
2022/12/26 09:08:19;;;;;;;;;;;8.10;99.90;;;;;;5074259;28;19965;-68
2022/12/26 09:10:44;;;;;;;;;;;8.10;99.90;;;;;;5074243;28;19924;-68
2022/12/26 09:13:10;;;;;;;;;;;8.20;99.90;;;;;;5090095;28;19932;-68
2022/12/26 09:15:36;;;;;;;;;;;8.20;99.90;;;;;;5059282;28;19919;-68
2022/12/26 09:18:01;;;;;;;;;;;8.30;99.90;;;;;;5074674;28;20266;-69
2022/12/26 09:20:27;;;;;;;;;;;8.40;99.90;;;;;;5075799;28;20293;-68
2022/12/26 09:22:54;;;;;;;;;;;8.40;99.90;;;;;;5058078;28;19920;-68
2022/12/26 09:25:21;;;;;;;;;;;8.40;99.90;;;;;;5057601;28;20434;-68
2022/12/26 09:27:52;;;;;;;;;;;8.50;99.90;;;;;;5073792;28;19920;-69
2022/12/26 09:30:19;;;;;;;;;;;8.50;99.90;;;;;;5086043;28;20395;-68
2022/12/26 09:32:45;;;;;;;;;;;8.50;99.90;;;;;;5090018;28;19920;-68
2022/12/26 09:35:11;;;;;;;;;;;8.50;99.90;;;;;;5055630;28;19920;-68
2022/12/26 09:37:36;;;;;;;;;;;8.50;99.90;;;;;;5098891;28;20440;-69
2022/12/26 09:40:09;;;;;;;;;;;8.60;99.90;;;;;;5072650;28;19985;-68
2022/12/26 09:42:50;;;;;;;;;;;8.60;99.90;;;;;;5067550;28;19924;-68
2022/12/26 09:45:17;;;;;;;;;;;8.60;99.90;;;;;;5087137;28;19973;-69
2022/12/26 09:47:51;;;;;;;;;;;8.60;99.90;;;;;;5058367;28;19920;-68
2022/12/26 09:50:28;;;;;;;;;;;8.60;99.90;;;;;;5073585;28;20378;-68
2022/12/26 09:53:08;;;;;;;;;;;8.60;99.90;;;;;;5088132;28;20543;-69
2022/12/26 09:55:40;;;;;;;;;;;8.60;99.90;;;;;;5091907;28;19951;-68
2022/12/26 09:58:27;;;;;;;;;;;8.60;99.90;;;;;;5075076;28;20002;-68
2022/12/26 10:01:04;;;;;;;;;;;8.70;99.90;;;;;;5092398;28;19971;-68
2022/12/26 10:03:41;;;;;;;;;;;8.70;99.90;;;;;;5093627;28;19924;-68
2022/12/26 10:06:13;;;;;;;;;;;8.70;99.90;;;;;;5059505;28;20362;-68
2022/12/26 10:08:57;;;;;;;;;;;8.80;99.90;;;;;;5075442;28;19924;-68
2022/12/26 10:11:23;;;;;;;;;;;8.80;99.90;;;;;;5070968;28;20412;-68
2022/12/26 10:13:52;;;;;;;;;;;8.90;99.90;;;;;;5071038;28;19935;-68
2022/12/26 10:16:40;;;;;;;;;;;8.90;99.90;;;;;;5071629;28;20394;-69
2022/12/26 10:19:24;;;;;;;;;;;8.90;99.90;;;;;;5069934;28;19926;-68
2022/12/26 10:22:05;;;;;;;;;;;8.90;99.90;;;;;;5071114;28;20007;-68
2022/12/26 10:24:33;;;;;;;;;;;8.90;99.90;;;;;;5071202;28;19959;-68
2022/12/26 10:27:12;;;;;;;;;;;8.80;99.90;;;;;;5070068;28;19920;-68
2022/12/26 10:29:40;;;;;;;;;;;8.80;99.90;;;;;;5051556;28;20023;-68
2022/12/26 10:32:26;;;;;;;;;;;8.80;99.90;;;;;;5067630;28;19936;-68
2022/12/26 10:34:52;;;;;;;;;;;8.70;99.90;;;;;;5083013;28;19921;-68
2022/12/26 10:37:36;;;;;;;;;;;8.60;99.90;;;;;;5083538;28;19935;-69
2022/12/26 10:40:10;;;;;;;;;;;8.40;99.90;;;;;;5067293;28;20382;-69
2022/12/26 10:42:38;;;;;;;;;;;8.10;99.90;;;;;;5065364;28;19995;-69
2022/12/26 10:45:22;;;;;;;;;;;7.90;99.90;;;;;;5066617;28;20027;-70
2022/12/26 10:47:52;;;;;;;;;;;7.60;99.90;;;;;;5065677;28;20391;-70
2022/12/26 10:50:32;;;;;;;;;;;7.60;99.90;;;;;;5070949;28;19928;-70
2022/12/26 10:53:00;;;;;;;;;;;7.50;99.90;;;;;;5070240;28;19920;-70
2022/12/26 10:55:28;;;;;;;;;;;7.40;99.90;;;;;;5069797;28;19921;-70
2022/12/26 10:57:54;;;;;;;;;;;7.40;99.90;;;;;;5069218;28;20114;-70
2022/12/26 11:00:21;;;;;;;;;;;7.40;99.90;;;;;;5070278;28;19989;-70
2022/12/26 11:03:02;;;;;;;;;;;7.40;99.90;;;;;;5069788;28;20004;-70
2022/12/26 11:05:28;;;;;;;;;;;7.40;99.90;;;;;;5050838;28;19920;-70
2022/12/26 11:07:56;;;;;;;;;;;7.40;99.90;;;;;;5033465;28;20263;-69
2022/12/26 11:10:24;;;;;;;;;;;7.40;99.90;;;;;;5096535;28;20401;-70
2022/12/26 11:12:54;;;;;;;;;;;7.40;99.90;;;;;;5068449;28;20321;-70
2022/12/26 11:15:27;;;;;;;;;;;7.30;99.90;;;;;;5072357;28;19920;-69
2022/12/26 11:17:54;;;;;;;;;;;7.30;99.90;;;;;;5074142;28;20342;-70
2022/12/26 11:20:22;;;;;;;;;;;7.30;99.90;;;;;;5053542;28;19921;-69
2022/12/26 11:22:48;;;;;;;;;;;7.20;99.90;;;;;;5056207;28;19928;-70
2022/12/26 11:25:20;;;;;;;;;;;7.20;99.90;;;;;;5055826;28;19921;-70
2022/12/26 11:27:50;;;;;;;;;;;7.10;99.90;;;;;;5091113;28;19920;-70
2022/12/26 11:30:22;;;;;;;;;;;7.10;99.90;;;;;;5058388;28;20386;-69
2022/12/26 11:33:02;;;;;;;;;;;7.10;99.90;;;;;;5069762;28;19920;-70
2022/12/26 11:35:33;;;;;;;;;;;7.10;99.90;;;;;;5054954;28;20014;-70
2022/12/26 11:38:00;;;;;;;;;;;7.00;99.90;;;;;;5066872;28;19970;-69
2022/12/26 11:40:31;;;;;;;;;;;7.00;99.90;;;;;;5057858;28;19921;-69
2022/12/26 11:42:58;;;;;;;;;;;6.90;99.90;;;;;;5067483;28;19927;-70
2022/12/26 11:45:26;;;;;;;;;;;6.80;99.90;;;;;;5077615;28;19920;-70
2022/12/26 11:47:53;;;;;;;;;;;6.70;99.90;;;;;;5069900;28;19959;-70
2022/12/26 11:50:24;;;;;;;;;;;6.70;99.90;;;;;;5062502;28;19928;-69
2022/12/26 11:53:13;;;;;;;;;;;6.60;99.90;;;;;;5062544;28;19931;-70
2022/12/26 11:55:44;;;;;;;;;;;6.60;99.90;;;;;;5046527;28;19978;-70
2022/12/26 11:58:28;;;;;;;;;;;6.50;99.90;;;;;;5060958;28;20321;-70
2022/12/26 12:01:05;;;;;;;;;;;6.50;99.90;;;;;;5062067;28;19925;-70
2022/12/26 12:03:33;;;;;;;;;;;6.50;99.90;;;;;;5047842;28;19924;-70
2022/12/26 12:06:11;;;;;;;;;;;6.60;99.90;;;;;;5062332;28;19955;-70
2022/12/26 12:08:43;;;;;;;;;;;6.50;99.90;;;;;;5057710;28;20297;-70
2022/12/26 12:11:18;;;;;;;;;;;6.50;99.90;;;;;;5062678;28;19928;-70
2022/12/26 12:13:47;;;;;;;;;;;6.50;99.90;;;;;;5063689;28;19928;-70
2022/12/26 12:16:22;;;;;;;;;;;6.50;99.90;;;;;;5062451;28;19930;-70
2022/12/26 12:18:48;;;;;;;;;;;6.50;99.90;;;;;;5064580;28;20385;-70
2022/12/26 12:21:31;;;;;;;;;;;6.50;99.90;;;;;;5064927;28;19925;-69
2022/12/26 12:24:00;;;;;;;;;;;6.50;99.90;;;;;;5077844;28;19925;-69
2022/12/26 12:27:00;;;;;;;;;;;6.50;99.90;;;;;;5059390;28;20176;-69
2022/12/26 12:29:38;;;;;;;;;;;6.50;99.90;;;;;;5032082;28;19959;-70
2022/12/26 12:32:23;;;;;;;;;;;6.50;99.90;;;;;;5074282;28;19939;-70
2022/12/26 12:35:14;;;;;;;;;;;6.40;99.90;;;;;;5076782;28;20276;-70
2022/12/26 12:37:49;;;;;;;;;;;6.50;99.90;;;;;;5077145;28;20351;-70
2022/12/26 12:40:34;;;;;;;;;;;6.50;99.90;;;;;;5063163;28;19931;-70
2022/12/26 12:43:06;;;;;;;;;;;6.60;99.90;;;;;;5062141;28;19930;-70
2022/12/26 12:45:33;;;;;;;;;;;6.90;99.90;;;;;;5073919;28;19924;-71
2022/12/26 12:48:11;;;;;;;;;;;7.10;99.90;;;;;;5062748;28;19921;-69
2022/12/26 12:50:43;;;;;;;;;;;7.20;99.90;;;;;;5063534;28;19927;-70
2022/12/26 12:53:21;;;;;;;;;;;7.20;99.90;;;;;;5058148;28;20464;-70
2022/12/26 12:56:03;;;;;;;;;;;7.20;99.90;;;;;;5062534;28;19924;-71
2022/12/26 12:58:36;;;;;;;;;;;7.20;99.90;;;;;;5059884;28;20382;-70
2022/12/26 13:01:08;;;;;;;;;;;7.20;99.90;;;;;;5060965;28;20007;-70
2022/12/26 13:03:39;;;;;;;;;;;7.10;99.90;;;;;;5082227;28;19928;-71
2022/12/26 13:06:05;;;;;;;;;;;7.20;99.90;;;;;;5057490;28;20009;-70
2022/12/26 13:08:44;;;;;;;;;;;7.20;99.90;;;;;;5045992;28;19978;-70
2022/12/26 13:11:22;;;;;;;;;;;7.10;99.90;;;;;;5080327;28;19928;-70
2022/12/26 13:13:51;;;;;;;;;;;6.90;99.90;;;;;;5081325;28;19925;-70
2022/12/26 13:16:18;;;;;;;;;;;6.80;99.90;;;;;;5066293;28;20007;-70
2022/12/26 13:18:51;;;;;;;;;;;6.70;99.90;;;;;;5081924;28;19928;-70
2022/12/26 13:21:17;;;;;;;;;;;6.60;99.90;;;;;;5067045;28;19924;-70
2022/12/26 13:26:34;;;;;;;;;;;6.50;99.90;;;;;;5066230;28;20384;-70
2022/12/26 13:29:04;;;;;;;;;;;6.50;99.90;;;;;;5062768;28;19928;-71
2022/12/26 13:31:37;;;;;;;;;;;6.50;99.90;;;;;;5065233;28;19920;-70
2022/12/26 13:34:06;;;;;;;;;;;6.40;99.90;;;;;;5051227;28;20011;-70
2022/12/26 13:36:33;;;;;;;;;;;6.30;99.90;;;;;;5069357;28;19927;-70
2022/12/26 13:39:00;;;;;;;;;;;6.30;99.90;;;;;;5069772;28;19920;-70
2022/12/26 13:44:17;;;;;;;;;;;6.20;99.90;;;;;;5068497;28;19920;-70
2022/12/26 13:46:45;;;;;;;;;;;6.20;99.90;;;;;;5082416;28;19924;-70
2022/12/26 13:49:26;;;;;;;;;;;6.20;99.90;;;;;;5068615;28;19996;-70
2022/12/26 13:51:52;;;;;;;;;;;6.10;99.90;;;;;;5068492;28;19920;-70
2022/12/26 13:54:19;;;;;;;;;;;6.10;99.90;;;;;;5067364;28;19924;-70
2022/12/26 13:57:00;;;;;;;;;;;6.00;99.90;;;;;;5069124;28;20120;-70
2022/12/26 13:59:29;;;;;;;;;;;6.00;99.90;;;;;;5060176;28;19920;-70
2022/12/26 14:02:13;;;;;;;;;;;5.90;99.90;;;;;;5067511;28;19964;-70
2022/12/26 14:05:02;;;;;;;;;;;5.90;99.90;;;;;;5068999;28;19921;-70
2022/12/26 14:07:33;;;;;;;;;;;5.80;99.90;;;;;;5050340;28;19920;-70
2022/12/26 14:09:58;;;;;;;;;;;5.80;99.90;;;;;;5072186;28;19928;-70
2022/12/26 14:12:39;;;;;;;;;;;5.80;99.90;;;;;;5088519;28;19920;-70
2022/12/26 14:15:14;;;;;;;;;;;5.70;99.90;;;;;;5050895;28;19927;-70
2022/12/26 14:17:47;;;;;;;;;;;5.70;99.90;;;;;;5068313;28;19965;-70
2022/12/26 14:20:18;;;;;;;;;;;5.70;99.90;;;;;;5067357;28;19930;-70
2022/12/26 14:22:56;;;;;;;;;;;5.60;99.90;;;;;;5084645;28;20077;-70
2022/12/26 14:25:37;;;;;;;;;;;5.60;99.90;;;;;;5069357;28;20377;-70
2022/12/26 14:28:16;;;;;;;;;;;5.60;99.90;;;;;;5054228;28;19931;-70
2022/12/26 14:30:51;;;;;;;;;;;5.50;99.90;;;;;;5071263;28;20381;-70
2022/12/26 14:33:26;;;;;;;;;;;5.50;99.90;;;;;;5055237;28;19963;-70
2022/12/26 14:36:15;;;;;;;;;;;5.40;99.90;;;;;;5072500;28;20486;-70
2022/12/26 14:38:48;;;;;;;;;;;5.40;99.90;;;;;;5070158;28;19926;-70
2022/12/26 14:44:18;;;;;;;;;;;5.40;99.90;;;;;;5083153;28;19970;-70
2022/12/26 14:46:47;;;;;;;;;;;5.40;99.90;;;;;;5064135;28;20408;-70
2022/12/26 14:49:23;;;;;;;;;;;5.40;99.90;;;;;;5084398;28;19924;-70
2022/12/26 14:51:50;;;;;;;;;;;5.40;99.90;;;;;;5069826;28;19920;-70
2022/12/26 14:54:21;;;;;;;;;;;5.50;99.90;;;;;;5070246;28;20448;-70
2022/12/26 14:56:49;;;;;;;;;;;5.40;99.90;;;;;;5071328;28;19924;-70
2022/12/26 14:59:33;;;;;;;;;;;5.40;99.90;;;;;;5070146;28;19962;-70
2022/12/26 15:02:07;;;;;;;;;;;5.40;99.90;;;;;;5070984;28;20086;-70
2022/12/26 15:04:51;;;;;;;;;;;5.30;99.90;;;;;;5074958;28;20257;-70
2022/12/26 15:07:37;;;;;;;;;;;5.30;99.90;;;;;;5093835;28;19924;-70
2022/12/26 15:10:25;;;;;;;;;;;5.30;99.90;;;;;;5091749;28;19925;-70
2022/12/26 15:13:09;;;;;;;;;;;5.20;99.90;;;;;;5093116;28;20363;-70
2022/12/26 15:15:48;;;;;;;;;;;5.20;99.90;;;;;;5075961;28;20438;-70
2022/12/26 15:18:19;;;;;;;;;;;5.20;99.90;;;;;;5092542;28;19974;-70
2022/12/26 15:21:04;;;;;;;;;;;5.20;99.90;;;;;;5072487;28;20465;-70
2022/12/26 15:23:36;;;;;;;;;;;5.10;99.90;;;;;;5075309;28;20497;-70
2022/12/26 15:26:22;;;;;;;;;;;5.00;99.90;;;;;;5091699;28;19920;-70
2022/12/26 15:28:47;;;;;;;;;;;4.90;99.90;;;;;;5058823;28;19920;-70
2022/12/26 15:31:25;;;;;;;;;;;4.90;99.90;;;;;;5057722;28;19932;-70
2022/12/26 15:34:27;;;;;;;;;;;4.80;99.90;;;;;;5059841;28;19975;-70
2022/12/26 15:36:57;;;;;;;;;;;4.80;99.90;;;;;;5092869;28;19927;-70
2022/12/26 15:39:42;;;;;;;;;;;4.80;99.90;;;;;;5058629;28;19943;-70
2022/12/26 15:42:20;;;;;;;;;;;4.70;99.90;;;;;;5091759;28;20349;-70
2022/12/26 15:44:45;;;;;;;;;;;4.60;99.90;;;;;;5058648;28;20155;-70
2022/12/26 15:47:11;;;;;;;;;;;4.60;99.90;;;;;;5075098;28;20293;-70
2022/12/26 15:49:42;;;;;;;;;;;4.50;99.90;;;;;;5072986;28;19971;-70
2022/12/26 15:52:11;;;;;;;;;;;4.50;99.90;;;;;;5090520;28;20015;-70
2022/12/26 15:54:52;;;;;;;;;;;4.50;99.90;;;;;;5058648;28;20434;-70
2022/12/26 15:57:36;;;;;;;;;;;4.40;99.90;;;;;;5074731;28;19920;-70
2022/12/26 16:00:21;;;;;;;;;;;4.40;99.90;;;;;;5075013;28;19943;-69
2022/12/26 16:03:11;;;;;;;;;;;4.40;99.90;;;;;;5074192;28;19931;-70
2022/12/26 16:05:40;;;;;;;;;;;4.40;99.90;;;;;;5074564;28;19927;-70
2022/12/26 16:08:24;;;;;;;;;;;4.40;99.90;;;;;;5074593;28;19924;-70
2022/12/26 16:11:25;;;;;;;;;;;4.40;99.90;;;;;;5062372;28;19925;-70
2022/12/26 16:14:01;;;;;;;;;;;4.30;99.90;;;;;;5049983;28;19928;-70
2022/12/26 16:16:32;;;;;;;;;;;4.30;99.90;;;;;;5034615;28;19916;-70
2022/12/26 16:19:14;;;;;;;;;;;4.30;99.90;;;;;;5050713;28;19971;-70
2022/12/26 16:24:28;;;;;;;;;;;4.30;99.90;;;;;;5050757;28;19921;-70
2022/12/26 16:27:01;;;;;;;;;;;4.30;99.90;;;;;;5034746;28;19920;-70
2022/12/26 16:29:30;;;;;;;;;;;4.30;99.90;;;;;;5032920;28;19925;-70
2022/12/26 16:32:03;;;;;;;;;;;4.20;99.90;;;;;;5031886;28;20404;-70
2022/12/26 16:34:31;;;;;;;;;;;4.20;99.90;;;;;;5050549;28;19966;-70
2022/12/26 16:37:00;;;;;;;;;;;4.20;99.90;;;;;;5050480;28;20386;-70
2022/12/26 16:39:26;;;;;;;;;;;4.20;99.90;;;;;;5050185;28;19930;-70
2022/12/26 16:42:12;;;;;;;;;;;4.10;99.90;;;;;;5033951;28;20310;-70
2022/12/26 16:44:39;;;;;;;;;;;4.00;99.90;;;;;;5034279;28;19921;-70
2022/12/26 16:47:07;;;;;;;;;;;4.00;99.90;;;;;;5050389;28;19959;-70
2022/12/26 16:49:43;;;;;;;;;;;4.00;99.90;;;;;;5049754;28;19924;-70
2022/12/26 16:52:30;;;;;;;;;;;4.00;99.90;;;;;;5032740;28;19921;-70
2022/12/26 16:55:21;;;;;;;;;;;3.90;99.90;;;;;;5034404;28;19929;-70
2022/12/26 16:57:55;;;;;;;;;;;3.90;99.90;;;;;;5050627;28;20326;-70
2022/12/26 17:00:23;;;;;;;;;;;3.90;99.90;;;;;;5049998;28;20368;-70
2022/12/26 17:02:51;;;;;;;;;;;3.80;99.90;;;;;;5049940;28;20271;-70
2022/12/26 17:05:34;;;;;;;;;;;3.80;99.90;;;;;;5048687;28;19920;-70
2022/12/26 17:08:01;;;;;;;;;;;3.70;99.90;;;;;;5033531;28;19921;-70
2022/12/26 17:10:27;;;;;;;;;;;3.80;99.90;;;;;;5052603;28;19931;-70
2022/12/26 17:12:54;;;;;;;;;;;3.70;99.90;;;;;;5045125;28;19957;-70
2022/12/26 17:15:27;;;;;;;;;;;3.70;99.90;;;;;;5046608;28;20290;-70
2022/12/26 17:17:53;;;;;;;;;;;3.60;99.90;;;;;;5059406;28;19955;-70